Time;durP1;ratioP1;P1;durP2;ratioP2;P2;SDS_P1;SDS_P2;PMS_P1;PMS_P2;Temp;Humidity;BMP_temperature;BMP_pressure;BME280_temperature;BME280_humidity;BME280_pressure;Samples;Min_cycle;Max_cycle;Signal;HPM_P1;HPM_P2
2022/08/25 00:00:42;;;;;;;46.33;30.00;;;;;;;19.53;100.00;100737.25;5070338;28;20024;-78
2022/08/25 00:03:08;;;;;;;45.53;29.67;;;;;;;19.55;100.00;100743.28;5070019;28;20036;-76
2022/08/25 00:05:34;;;;;;;42.08;28.67;;;;;;;19.52;100.00;100739.34;5070055;28;20047;-78
2022/08/25 00:08:00;;;;;;;40.38;29.40;;;;;;;19.47;100.00;100728.59;5070450;28;20039;-77
2022/08/25 00:10:26;;;;;;;41.92;28.13;;;;;;;19.45;100.00;100736.28;5053543;28;20034;-77
2022/08/25 00:12:51;;;;;;;45.53;27.75;;;;;;;19.37;100.00;100721.63;5070552;28;20029;-76
2022/08/25 00:15:17;;;;;;;44.30;27.92;;;;;;;19.38;100.00;100737.69;5074417;28;20036;-76
2022/08/25 00:17:42;;;;;;;41.88;26.75;;;;;;;19.32;100.00;100728.25;5073403;28;20111;-77
2022/08/25 00:20:08;;;;;;;43.03;28.73;;;;;;;19.28;100.00;100724.88;5073485;28;20028;-76
2022/08/25 00:22:34;;;;;;;42.22;27.60;;;;;;;19.29;100.00;100723.56;5075340;28;20029;-77
2022/08/25 00:24:59;;;;;;;44.63;29.20;;;;;;;19.20;100.00;100714.44;5074980;28;20036;-77
2022/08/25 00:27:25;;;;;;;45.10;26.98;;;;;;;19.23;100.00;100725.72;5076354;28;20032;-77
2022/08/25 00:29:50;;;;;;;45.67;27.77;;;;;;;19.20;100.00;100717.34;5080156;28;20020;-76
2022/08/25 00:32:17;;;;;;;42.65;28.08;;;;;;;19.18;100.00;100712.09;5078528;28;20040;-76
2022/08/25 00:34:43;;;;;;;40.53;26.63;;;;;;;19.15;100.00;100716.09;5077154;28;20024;-77
2022/08/25 00:37:09;;;;;;;43.10;27.80;;;;;;;19.10;100.00;100720.59;5060435;28;20036;-77
2022/08/25 00:39:35;;;;;;;39.88;27.50;;;;;;;19.09;100.00;100719.00;5060783;28;20029;-77
2022/08/25 00:42:03;;;;;;;44.35;28.08;;;;;;;19.08;100.00;100719.53;5060700;28;20059;-77
2022/08/25 00:44:30;;;;;;;43.47;28.08;;;;;;;19.08;100.00;100722.44;5079013;28;20024;-77
2022/08/25 00:46:58;;;;;;;42.90;28.20;;;;;;;19.05;100.00;100714.84;5061481;28;20044;-76
2022/08/25 00:49:45;;;;;;;43.67;27.75;;;;;;;19.00;100.00;100712.78;5076271;28;20024;-77
2022/08/25 00:52:22;;;;;;;45.55;28.85;;;;;;;19.00;100.00;100715.69;5076890;28;20039;-76
2022/08/25 00:54:56;;;;;;;44.30;27.92;;;;;;;18.99;100.00;100717.78;5077825;28;20507;-76
2022/08/25 00:57:25;;;;;;;48.47;28.92;;;;;;;19.03;100.00;100726.19;5076443;28;20035;-77
2022/08/25 00:59:51;;;;;;;46.80;29.77;;;;;;;19.07;100.00;100717.97;5076605;28;20094;-76
2022/08/25 01:02:16;;;;;;;54.60;29.02;;;;;;;19.15;100.00;100726.88;5076654;28;20495;-77
2022/08/25 01:04:44;;;;;;;47.15;29.55;;;;;;;19.23;100.00;100728.63;5079956;28;20021;-76
2022/08/25 01:07:10;;;;;;;54.05;30.00;;;;;;;19.30;100.00;100728.03;5080581;28;20032;-76
2022/08/25 01:09:36;;;;;;;45.60;28.23;;;;;;;19.34;100.00;100728.50;5061848;28;20077;-77
2022/08/25 01:12:02;;;;;;;51.42;28.55;;;;;;;19.36;100.00;100730.88;5078572;28;20028;-77
2022/08/25 01:14:30;;;;;;;49.40;29.05;;;;;;;19.33;100.00;100735.63;5078501;28;20067;-76
2022/08/25 01:16:57;;;;;;;51.00;28.42;;;;;;;19.33;100.00;100729.03;5078881;28;20029;-75
2022/08/25 01:19:24;;;;;;;51.83;29.27;;;;;;;19.27;100.00;100740.69;5078488;28;20048;-76
2022/08/25 01:21:51;;;;;;;47.70;28.30;;;;;;;19.23;100.00;100737.31;5078603;28;20028;-75
2022/08/25 01:24:35;;;;;;;46.22;28.85;;;;;;;19.15;100.00;100735.56;5080164;28;20032;-77
2022/08/25 01:27:00;;;;;;;51.38;29.33;;;;;;;19.07;100.00;100730.34;5079848;28;20033;-76
2022/08/25 01:29:26;;;;;;;48.22;28.70;;;;;;;19.05;100.00;100730.13;5080160;28;20389;-77
2022/08/25 01:31:57;;;;;;;51.00;28.88;;;;;;;19.01;100.00;100731.75;5080149;28;20355;-76
2022/08/25 01:34:28;;;;;;;46.42;29.35;;;;;;;18.97;100.00;100722.53;5079831;28;20126;-77
2022/08/25 01:36:54;;;;;;;51.88;29.83;;;;;;;18.93;100.00;100722.84;5080056;28;20111;-77
2022/08/25 01:39:20;;;;;;;55.13;30.70;;;;;;;18.89;100.00;100721.59;5075791;28;20354;-76
2022/08/25 01:42:01;;;;;;;49.92;28.95;;;;;;;18.86;100.00;100722.69;5075830;28;20028;-77
2022/08/25 01:44:26;;;;;;;52.97;31.00;;;;;;;18.80;100.00;100716.16;5075433;28;20021;-77
2022/08/25 01:46:53;;;;;;;54.65;31.10;;;;;;;18.80;100.00;100719.03;5075534;28;20363;-75
2022/08/25 01:49:18;;;;;;;48.63;29.63;;;;;;;18.77;100.00;100720.13;5075254;28;20450;-76
2022/08/25 01:51:51;;;;;;;50.85;29.90;;;;;;;18.73;100.00;100716.72;5058919;28;20056;-76
2022/08/25 01:54:17;;;;;;;52.28;29.92;;;;;;;18.69;100.00;100714.13;5075352;28;20028;-75
2022/08/25 01:56:42;;;;;;;48.60;29.60;;;;;;;18.65;100.00;100711.53;5076894;28;20035;-75
2022/08/25 01:59:08;;;;;;;49.70;30.25;;;;;;;18.62;100.00;100715.50;5075201;28;20028;-77
2022/08/25 02:01:34;;;;;;;49.75;30.50;;;;;;;18.64;100.00;100718.66;5076270;28;20029;-75
2022/08/25 02:03:59;;;;;;;51.97;29.98;;;;;;;18.61;100.00;100716.06;5058726;28;20032;-76
2022/08/25 02:06:28;;;;;;;53.10;30.35;;;;;;;18.61;100.00;100721.84;5076245;28;20048;-76
2022/08/25 02:08:57;;;;;;;50.63;31.30;;;;;;;18.59;100.00;100727.38;5075574;28;20465;-76
2022/08/25 02:11:23;;;;;;;48.55;29.83;;;;;;;18.55;100.00;100713.22;5059054;28;20028;-76
2022/08/25 02:13:51;;;;;;;58.10;32.25;;;;;;;18.56;100.00;100726.38;5076427;28;20498;-76
2022/08/25 02:16:20;;;;;;;55.63;31.33;;;;;;;18.55;100.00;100726.91;5075788;28;20032;-77
2022/08/25 02:18:47;;;;;;;52.65;31.80;;;;;;;18.53;100.00;100718.75;5076137;28;20032;-77
2022/08/25 02:21:13;;;;;;;55.25;31.70;;;;;;;18.47;100.00;100703.56;5072836;28;20029;-77
2022/08/25 02:23:40;;;;;;;51.13;30.42;;;;;;;18.47;100.00;100706.44;5074011;28;20473;-77
2022/08/25 02:26:07;;;;;;;56.95;32.45;;;;;;;18.39;100.00;100699.66;5074149;28;20044;-78
2022/08/25 02:28:33;;;;;;;60.97;32.17;;;;;;;18.37;100.00;100693.63;5055472;28;20030;-77
2022/08/25 02:30:58;;;;;;;61.05;32.50;;;;;;;18.35;100.00;100687.59;5072573;28;20032;-77
2022/08/25 02:33:24;;;;;;;55.60;30.95;;;;;;;18.34;100.00;100688.91;5055930;28;20129;-77
2022/08/25 02:35:50;;;;;;;60.65;31.65;;;;;;;18.31;100.00;100684.22;5075052;28;20366;-78
2022/08/25 02:38:16;;;;;;;59.40;32.20;;;;;;;18.32;100.00;100687.88;5072318;28;20020;-77
2022/08/25 02:40:42;;;;;;;61.08;32.17;;;;;;;18.31;100.00;100686.31;5073379;28;20112;-77
2022/08/25 02:43:07;;;;;;;59.40;32.40;;;;;;;18.32;100.00;100685.00;5073848;28;20039;-76
2022/08/25 02:45:33;;;;;;;59.83;33.33;;;;;;;18.30;100.00;100687.59;5074031;28;20379;-77
2022/08/25 02:47:59;;;;;;;64.97;33.83;;;;;;;18.28;100.00;100688.91;5055864;28;20024;-77
2022/08/25 02:50:25;;;;;;;58.95;34.33;;;;;;;18.28;100.00;100688.13;5072878;28;20080;-77
2022/08/25 02:52:51;;;;;;;64.03;34.30;;;;;;;18.25;100.00;100692.09;5074968;28;20089;-76
2022/08/25 02:55:17;;;;;;;58.17;33.58;;;;;;;18.23;100.00;100686.06;5057505;28;20036;-76
2022/08/25 02:57:43;;;;;;;70.75;35.05;;;;;;;18.22;100.00;100684.50;5074073;28;20032;-77
2022/08/25 03:00:13;;;;;;;67.10;34.83;;;;;;;18.22;100.00;100687.41;5057215;28;20027;-78
2022/08/25 03:02:40;;;;;;;64.60;34.07;;;;;;;18.18;100.00;100681.88;5075782;28;20032;-76
2022/08/25 03:05:06;;;;;;;61.42;33.30;;;;;;;18.19;100.00;100686.34;5073979;28;20048;-75
2022/08/25 03:07:32;;;;;;;68.05;35.20;;;;;;;18.17;100.00;100682.44;5075746;28;20021;-77
2022/08/25 03:09:57;;;;;;;61.33;34.95;;;;;;;18.13;100.00;100676.13;5075548;28;20388;-77
2022/08/25 03:12:23;;;;;;;63.33;34.42;;;;;;;18.14;100.00;100677.72;5074973;28;20120;-76
2022/08/25 03:14:48;;;;;;;66.28;35.40;;;;;;;18.12;100.00;100678.28;5073221;28;20028;-76
2022/08/25 03:17:14;;;;;;;60.22;31.27;;;;;;;18.10;100.00;100677.22;5075111;28;20036;-76
2022/08/25 03:19:39;;;;;;;63.97;35.03;;;;;;;18.11;100.00;100678.81;5073579;28;20425;-76
2022/08/25 03:22:04;;;;;;;68.90;36.50;;;;;;;18.10;100.00;100677.22;5073388;28;20024;-77
2022/08/25 03:24:30;;;;;;;68.20;35.50;;;;;;;18.11;100.00;100675.91;5074836;28;20025;-77
2022/08/25 03:26:55;;;;;;;64.95;34.75;;;;;;;18.11;100.00;100675.91;5074857;28;20024;-76
2022/08/25 03:29:24;;;;;;;64.43;33.15;;;;;;;18.12;100.00;100672.50;5073500;28;20091;-77
2022/08/25 03:31:50;;;;;;;72.97;34.63;;;;;;;18.14;100.00;100687.19;5073335;28;20431;-76
2022/08/25 03:34:17;;;;;;;64.45;33.90;;;;;;;18.12;100.00;100678.28;5074019;28;20492;-77
2022/08/25 03:36:43;;;;;;;66.95;34.38;;;;;;;18.15;100.00;100682.97;5056890;28;20089;-76
2022/08/25 03:39:09;;;;;;;59.42;34.33;;;;;;;18.15;100.00;100685.06;5056710;28;20028;-74
2022/08/25 03:41:35;;;;;;;64.97;34.28;;;;;;;18.17;100.00;100677.44;5073610;28;20034;-77
2022/08/25 03:44:02;;;;;;;66.55;33.42;;;;;;;18.00;100.00;100678.88;5057245;28;20051;-74
2022/08/25 03:46:48;;;;;;;65.13;34.28;;;;;;;18.05;100.00;100673.06;5073437;28;20024;-75
2022/08/25 03:49:17;;;;;;;60.83;33.28;;;;;;;18.02;100.00;100676.25;5056695;28;20032;-76
2022/08/25 03:51:48;;;;;;;61.00;34.58;;;;;;;18.01;100.00;100681.25;5073494;28;20124;-75
2022/08/25 03:54:20;;;;;;;63.45;34.58;;;;;;;18.01;100.00;100681.25;5074086;28;20033;-76
2022/08/25 03:56:45;;;;;;;;;;;;;;;18.01;100.00;100689.13;5074907;28;20081;-81
2022/08/25 03:59:11;;;;;;;63.20;31.87;;;;;;;17.99;100.00;100680.19;5076308;28;19999;-80
2022/08/25 04:01:38;;;;;;;59.67;34.78;;;;;;;18.00;100.00;100679.66;5075933;28;20627;-81
2022/08/25 04:04:05;;;;;;;57.45;34.08;;;;;;;17.98;100.00;100682.28;5074721;28;20074;-80
2022/08/25 04:06:30;;;;;;;62.67;33.78;;;;;;;18.01;100.00;100686.22;5074552;28;20044;-80
2022/08/25 04:08:57;;;;;;;63.08;34.50;;;;;;;17.99;100.00;100680.97;5074868;28;20111;-81
2022/08/25 04:11:23;;;;;;;60.17;34.05;;;;;;;18.03;100.00;100683.59;5076227;28;20035;-80
2022/08/25 04:13:50;;;;;;;59.75;32.45;;;;;;;18.03;100.00;100683.59;5074644;28;20047;-81
2022/08/25 04:16:22;;;;;;;59.15;33.90;;;;;;;18.06;100.00;100682.53;5058587;28;20048;-82
2022/08/25 04:18:48;;;;;;;58.90;31.35;;;;;;;18.08;100.00;100691.47;5058525;28;20036;-82
2022/08/25 04:21:14;;;;;;;58.92;34.13;;;;;;;18.08;100.00;100686.44;5076524;28;20042;-82
2022/08/25 04:23:41;;;;;;;60.92;33.25;;;;;;;18.10;100.00;100680.91;5075770;28;20107;-81
2022/08/25 04:26:11;;;;;;;63.35;34.13;;;;;;;18.13;100.00;100693.50;5074723;28;20119;-80
2022/08/25 04:28:36;;;;;;;61.45;33.88;;;;;;;18.17;100.00;100685.34;5057387;28;20094;-81
2022/08/25 04:31:14;;;;;;;55.50;33.85;;;;;;;18.28;100.00;100693.91;5073503;28;20453;-81
2022/08/25 04:33:40;;;;;;;59.85;31.63;;;;;;;18.36;100.00;100686.28;5063424;28;20097;-81
2022/08/25 04:36:11;;;;;;;54.33;32.70;;;;;;;18.44;100.00;100683.56;5063849;28;20044;-80
2022/08/25 04:38:40;;;;;;;56.30;31.73;;;;;;;18.56;100.00;100687.94;5063044;28;20064;-79
2022/08/25 04:41:07;;;;;;;57.38;31.83;;;;;;;18.64;100.00;100695.50;5066798;28;20128;-80
2022/08/25 04:43:48;;;;;;;58.92;33.08;;;;;;;18.69;100.00;100697.56;5067329;28;20496;-80
2022/08/25 04:46:21;;;;;;;53.10;33.22;;;;;;;18.77;100.00;100700.63;5075648;28;20028;-80
2022/08/25 04:48:49;;;;;;;59.75;34.20;;;;;;;18.84;100.00;100702.16;5060102;28;20088;-80
2022/08/25 04:51:18;;;;;;;61.35;33.47;;;;;;;18.94;100.00;100695.47;5074319;28;20039;-79
2022/08/25 04:53:45;;;;;;;57.33;32.17;;;;;;;18.99;100.00;100694.63;5075464;28;20029;-79
2022/08/25 04:56:16;;;;;;;55.17;31.48;;;;;;;19.09;100.00;100700.84;5074386;28;20051;-81
2022/08/25 04:58:42;;;;;;;57.47;33.28;;;;;;;19.19;100.00;100698.38;5074331;28;20035;-80
2022/08/25 05:01:11;;;;;;;62.47;30.83;;;;;;;19.32;100.00;100693.47;5075279;28;20123;-79
2022/08/25 05:03:37;;;;;;;55.13;31.27;;;;;;;19.42;100.00;100702.59;5074633;28;20028;-81
2022/08/25 05:06:04;;;;;;;58.95;32.50;;;;;;;19.64;100.00;100699.41;5074886;28;20197;-81
2022/08/25 05:08:30;;;;;;;53.58;31.17;;;;;;;19.82;100.00;100704.44;5074639;28;20450;-80
2022/08/25 05:10:57;;;;;;;46.17;28.60;;;;;;;19.95;100.00;100701.63;5071902;28;20075;-80
2022/08/25 05:13:23;;;;;;;50.47;26.73;;;;;;;19.99;100.00;100707.13;5073896;28;20172;-82
2022/08/25 05:15:56;;;;;;;51.85;28.85;;;;;;;20.05;100.00;100701.25;5076112;28;20033;-78
2022/08/25 05:18:22;;;;;;;48.65;29.05;;;;;;;20.03;100.00;100698.09;5077636;28;20039;-78
2022/08/25 05:20:52;;;;;;;46.60;27.08;;;;;;;20.09;100.00;100695.91;5080234;28;20025;-80
2022/08/25 05:23:21;;;;;;;48.25;24.25;;;;;;;20.13;100.00;100702.19;5085748;28;20039;-80
2022/08/25 05:25:47;;;;;;;45.22;27.90;;;;;;;20.21;100.00;100697.28;5080843;28;20032;-78
2022/08/25 05:28:13;;;;;;;43.03;27.05;;;;;;;20.35;100.00;100690.22;5058303;28;20028;-79
2022/08/25 05:30:48;;;;;;;35.10;24.80;;;;;;;20.55;100.00;100692.50;5077789;28;20039;-80
2022/08/25 05:33:15;;;;;;;39.95;23.17;;;;;;;20.70;100.00;100692.81;5078518;28;20084;-83
2022/08/25 05:35:42;;;;;;;38.28;22.75;;;;;;;20.80;100.00;100691.03;5078118;28;20033;-82
2022/08/25 05:38:09;;;;;;;43.90;26.15;;;;;;;20.85;100.00;100692.28;5078055;28;20036;-82
2022/08/25 05:40:34;;;;;;;40.08;26.58;;;;;;;20.85;100.00;100692.28;5060649;28;20024;-86
2022/08/25 05:43:00;;;;;;;41.60;26.35;;;;;;;20.81;100.00;100694.72;5061844;28;20043;-80
2022/08/25 05:45:25;;;;;;;48.05;24.65;;;;;;;20.72;100.00;100695.16;5075140;28;20024;-82
2022/08/25 05:47:51;;;;;;;50.42;25.63;;;;;;;20.73;100.00;100691.72;5076486;28;20029;-83
2022/08/25 05:50:17;;;;;;;42.78;24.63;;;;;;;20.83;100.00;100692.06;5075608;28;20028;-82
2022/08/25 05:52:43;;;;;;;47.28;25.45;;;;;;;21.00;100.00;100695.44;5075294;28;20039;-83
2022/08/25 05:55:09;;;;;;;41.08;24.13;;;;;;;21.11;100.00;100686.50;5079494;28;20356;-83
2022/08/25 05:57:34;;;;;;;44.88;24.23;;;;;;;21.21;100.00;100686.84;5059591;28;20077;-79
2022/08/25 06:00:00;;;;;;;39.38;23.10;;;;;;;21.30;100.00;100688.50;5076634;28;20028;-80
2022/08/25 06:02:42;;;;;;;36.63;23.63;;;;;;;21.41;100.00;100691.19;5058186;28;20024;-78
2022/08/25 06:05:10;;;;;;;40.78;24.13;;;;;;;21.69;100.00;100688.50;5074456;28;20119;-77
2022/08/25 06:07:35;;;;;;;29.70;21.45;;;;;;;21.99;100.00;100688.88;5076105;28;20029;-79
2022/08/25 06:10:06;;;;;;;38.38;21.95;;;;;;;22.24;100.00;100688.59;5075352;28;20086;-78
2022/08/25 06:12:33;;;;;;;39.70;22.97;;;;;;;22.33;100.00;100688.09;5075876;28;20025;-78
2022/08/25 06:14:58;;;;;;;43.05;24.00;;;;;;;22.39;100.00;100692.47;5074525;28;20029;-76
2022/08/25 06:17:24;;;;;;;35.15;23.77;;;;;;;22.46;100.00;100691.75;5075783;28;20035;-80
2022/08/25 06:19:49;;;;;;;50.17;29.17;;;;;;;22.47;100.00;100693.31;5074140;28;20389;-77
2022/08/25 06:22:14;;;;;;;42.80;27.38;;;;;;;22.41;100.00;100701.41;5075439;28;20467;-76
2022/08/25 06:24:40;;;;;;;34.58;24.38;;;;;;;22.33;100.00;100705.56;5074905;28;20342;-76
2022/08/25 06:27:05;;;;;;;34.45;24.58;;;;;;;22.29;100.00;100714.69;5075631;28;20054;-76
2022/08/25 06:29:31;;;;;;;38.30;23.85;;;;;;;22.24;100.00;100721.41;5075673;28;20082;-80
2022/08/25 06:31:56;;;;;;;39.28;23.27;;;;;;;22.24;100.00;100714.81;5074209;28;20035;-80
2022/08/25 06:34:21;;;;;;;46.40;23.52;;;;;;;22.19;100.00;100715.72;5074114;28;20040;-81
2022/08/25 06:36:49;;;;;;;35.70;23.40;;;;;;;22.18;100.00;100717.06;5073775;28;20039;-82
2022/08/25 06:39:14;;;;;;;31.05;22.33;;;;;;;22.20;100.00;100715.16;5074053;28;20055;-80
2022/08/25 06:41:40;;;;;;;41.95;23.50;;;;;;;22.28;100.00;100721.06;5075674;28;20028;-83
2022/08/25 06:44:05;;;;;;;32.80;21.23;;;;;;;22.24;100.00;100720.63;5073931;28;20024;-81
2022/08/25 06:46:30;;;;;;;32.92;21.73;;;;;;;22.17;100.00;100727.16;5072851;28;20025;-82
2022/08/25 06:48:56;;;;;;;31.10;21.40;;;;;;;22.15;100.00;100727.69;5071530;28;20473;-80
2022/08/25 06:51:23;;;;;;;35.47;22.45;;;;;;;22.25;100.00;100728.03;5054861;28;20025;-81
2022/08/25 06:53:49;;;;;;;36.72;22.20;;;;;;;22.46;100.00;100731.75;5073350;28;20097;-81
2022/08/25 06:56:17;;;;;;;25.13;20.65;;;;;;;22.70;100.00;100724.81;5071697;28;20475;-80
2022/08/25 06:58:42;;;;;;;29.70;21.73;;;;;;;23.03;100.00;100729.78;5071736;28;20028;-80
2022/08/25 07:01:21;;;;;;;26.23;19.73;;;;;;;23.52;100.00;100726.03;5072664;28;20024;-82
2022/08/25 07:03:50;;;;;;;27.92;19.92;;;;;;;23.99;100.00;100722.81;5071443;28;20107;-81
2022/08/25 07:06:17;;;;;;;40.83;19.90;;;;;;;24.36;100.00;100719.25;5070857;28;20060;-81
2022/08/25 07:08:43;;;;;;;29.90;21.13;;;;;;;24.33;100.00;100720.41;5055746;28;20406;-82
2022/08/25 07:11:09;;;;;;;24.65;19.35;;;;;;;24.56;100.00;100723.38;5074577;28;20397;-81
2022/08/25 07:13:36;;;;;;;22.48;18.05;;;;;;;24.51;100.00;100730.97;5072903;28;20473;-81
2022/08/25 07:16:02;;;;;;;21.85;19.15;;;;;;;24.38;100.00;100722.38;5073004;28;20596;-82
2022/08/25 07:18:28;;;;;;;21.42;17.88;;;;;;;24.34;100.00;100722.00;5074077;28;20036;-82
2022/08/25 07:20:55;;;;;;;28.95;19.48;;;;;;;24.25;100.00;100727.63;5074169;28;20026;-82
2022/08/25 07:23:21;;;;;;;26.95;19.33;;;;;;;24.13;100.00;100733.78;5073359;28;20032;-82
2022/08/25 07:25:47;;;;;;;24.23;19.40;;;;;;;24.17;100.00;100733.38;5074326;28;20424;-81
2022/08/25 07:28:13;;;;;;;32.22;18.75;;;;;;;24.29;100.00;100720.03;5073041;28;20028;-82
2022/08/25 07:30:38;;;;;;;31.52;21.73;;;;;;;24.32;100.00;100726.84;5072706;28;20063;-82
2022/08/25 07:33:04;;;;;;;24.73;20.15;;;;;;;24.38;100.00;100719.47;5072573;28;20059;-82
2022/08/25 07:35:31;;;;;;;25.17;20.95;;;;;;;24.58;100.00;100724.38;5056075;28;20503;-82
2022/08/25 07:37:57;;;;;;;24.25;20.70;;;;;;;24.91;100.00;100719.53;5055626;28;20143;-82
2022/08/25 07:40:26;;;;;;;23.33;18.85;;;;;;;25.22;100.00;100722.47;5072594;28;20040;-81
2022/08/25 07:42:55;;;;;;;23.70;20.00;;;;;;;25.45;100.00;100718.13;5055902;28;20025;-81
2022/08/25 07:45:28;;;;;;;23.02;18.58;;;;;;;25.75;100.00;100717.28;5072800;28;20090;-82
2022/08/25 07:47:58;;;;;;;27.45;19.33;;;;;;;26.01;99.79;100718.94;5073209;28;20025;-81
2022/08/25 07:50:24;;;;;;;24.77;19.85;;;;;;;25.96;95.70;100717.03;5072890;28;20020;-82
2022/08/25 07:52:50;;;;;;;31.80;20.35;;;;;;;25.83;95.64;100717.25;5072287;28;20032;-81
2022/08/25 07:55:15;;;;;;;23.60;19.55;;;;;;;25.82;96.43;100709.84;5056476;28;20056;-81
2022/08/25 07:57:41;;;;;;;22.70;19.05;;;;;;;25.92;97.81;100710.78;5074031;28;20402;-81
2022/08/25 08:00:09;;;;;;;22.45;18.58;;;;;;;25.97;96.04;100712.72;5074286;28;20138;-80
2022/08/25 08:02:37;;;;;;;24.85;18.13;;;;;;;25.89;96.06;100709.81;5073090;28;20537;-83
2022/08/25 08:05:02;;;;;;;21.45;17.85;;;;;;;25.84;95.80;100704.94;5074089;28;20049;-81
2022/08/25 08:07:28;;;;;;;24.48;17.67;;;;;;;25.91;96.43;100709.22;5072716;28;20039;-82
2022/08/25 08:09:54;;;;;;;22.33;19.15;;;;;;;25.83;94.82;100693.81;5075115;28;20494;-81
2022/08/25 08:12:20;;;;;;;23.27;18.27;;;;;;;26.08;94.09;100712.25;5072898;28;20040;-81
2022/08/25 08:14:45;;;;;;;23.05;18.55;;;;;;;26.59;91.55;100713.94;5073267;28;20039;-82
2022/08/25 08:17:11;;;;;;;22.77;16.60;;;;;;;27.15;88.57;100712.34;5073929;28;20037;-77
2022/08/25 08:19:37;;;;;;;25.15;15.55;;;;;;;27.76;87.12;100712.50;5073495;28;20028;-83
2022/08/25 08:22:03;;;;;;;20.88;15.60;;;;;;;28.52;82.80;100716.66;5073467;28;20064;-83
2022/08/25 08:24:30;;;;;;;21.45;16.30;;;;;;;29.22;77.38;100710.63;5074209;28;20488;-83
2022/08/25 08:26:56;;;;;;;19.40;13.95;;;;;;;29.90;72.12;100707.75;5056635;28;20031;-83
2022/08/25 08:29:22;;;;;;;16.40;12.20;;;;;;;30.21;66.10;100699.84;5056671;28;20024;-82
2022/08/25 08:31:47;;;;;;;18.75;11.77;;;;;;;30.24;65.62;100691.91;5073873;28;20040;-82
2022/08/25 08:34:13;;;;;;;15.75;11.65;;;;;;;30.62;65.38;100693.94;5075250;28;20092;-82
2022/08/25 08:36:39;;;;;;;11.65;10.45;;;;;;;31.80;60.10;100689.09;5074319;28;20036;-82
2022/08/25 08:39:05;;;;;;;13.00;10.45;;;;;;;33.16;55.67;100689.13;5056240;28;20102;-84
2022/08/25 08:44:26;;;;;;;14.60;10.50;;;;;;;34.86;48.25;100675.53;5074172;28;20047;-83
2022/08/25 08:47:03;;;;;;;16.27;10.90;;;;;;;35.12;44.86;100680.72;5074444;28;20033;-79
2022/08/25 08:49:59;;;;;;;12.45;11.20;;;;;;;34.95;42.73;100677.53;5076279;28;20042;-84
2022/08/25 08:53:03;;;;;;;14.98;10.75;;;;;;;35.12;43.66;100668.06;5078242;28;20047;-83
2022/08/25 08:55:36;;;;;;;14.88;9.52;;;;;;;35.09;42.20;100670.19;5074663;28;20135;-84
2022/08/25 08:58:06;;;;;;;14.57;8.40;;;;;;;34.95;42.88;100666.41;5060180;28;20031;-83
2022/08/25 09:00:32;;;;;;;13.32;9.18;;;;;;;34.89;42.89;100666.06;5077039;28;20039;-84
2022/08/25 09:03:08;;;;;;;12.70;8.88;;;;;;;35.24;43.89;100653.09;5077487;28;20541;-82
2022/08/25 09:05:55;;;;;;;17.30;8.95;;;;;;;35.14;42.60;100665.22;5078648;28;20033;-83
2022/08/25 09:08:20;;;;;;;15.10;8.77;;;;;;;35.31;41.90;100661.66;5078692;28;20052;-84
2022/08/25 09:11:07;;;;;;;11.90;8.05;;;;;;;35.46;42.64;100655.03;5060517;28;20031;-84
2022/08/25 09:13:57;;;;;;;15.10;7.90;;;;;;;35.22;40.93;100668.63;5078456;28;20104;-84
2022/08/25 09:19:40;;;;;;;18.50;8.63;;;;;;;33.70;43.32;100656.97;5076470;28;20086;-81
2022/08/25 09:22:24;;;;;;;15.68;7.53;;;;;;;33.42;44.50;100661.16;5077854;28;20035;-85
2022/08/25 09:25:11;;;;;;;12.15;7.75;;;;;;;33.19;46.78;100643.41;5077263;28;20024;-84
2022/08/25 09:27:42;;;;;;;16.35;7.75;;;;;;;33.34;47.65;100643.66;5076907;28;20385;-84
2022/08/25 09:30:09;;;;;;;9.27;6.93;;;;;;;33.72;47.38;100647.44;5078823;28;20108;-84
2022/08/25 09:32:47;;;;;;;18.17;6.18;;;;;;;33.82;43.73;100648.78;5079525;28;20082;-85
2022/08/25 09:35:22;;;;;;;9.65;6.05;;;;;;;33.68;43.31;100641.22;5061085;28;20017;-83
2022/08/25 09:38:06;;;;;;;14.80;6.32;;;;;;;33.59;43.21;100637.00;5077547;28;20487;-85
2022/08/25 09:40:46;;;;;;;15.40;4.90;;;;;;;33.42;42.35;100646.34;5060302;28;20027;-84
2022/08/25 09:43:42;;;;;;;11.55;4.93;;;;;;;33.40;43.66;100644.03;5060572;28;20025;-85
2022/08/25 09:46:09;;;;;;;10.52;4.90;;;;;;;33.36;44.51;100634.88;5059669;28;20503;-83
2022/08/25 09:48:44;;;;;;;12.55;5.22;;;;;;;33.47;44.75;100630.34;5079043;28;20469;-84
2022/08/25 09:51:20;;;;;;;13.05;4.93;;;;;;;33.61;42.89;100643.06;5077467;28;20078;-85
2022/08/25 09:54:15;;;;;;;14.05;5.07;;;;;;;33.69;42.15;100639.81;5079063;28;20028;-84
2022/08/25 09:56:52;;;;;;;7.40;3.78;;;;;;;33.36;40.84;100634.13;5078566;28;20116;-84
2022/08/25 09:59:26;;;;;;;10.10;3.67;;;;;;;33.20;41.21;100630.16;5077625;28;20497;-84
2022/08/25 10:01:57;;;;;;;19.13;4.60;;;;;;;33.00;42.71;100618.56;5079275;28;20028;-85
2022/08/25 10:04:26;;;;;;;;;;;;;;;32.91;44.59;100616.53;5079123;28;20089;-84
2022/08/25 10:06:52;;;;;;;15.25;5.00;;;;;;;32.83;44.82;100609.34;5079319;28;20003;-84
2022/08/25 10:09:41;;;;;;;10.57;4.07;;;;;;;32.79;43.47;100606.88;5079442;28;20546;-84
2022/08/25 10:12:20;;;;;;;14.25;4.70;;;;;;;32.77;44.36;100603.03;5061609;28;20032;-84
2022/08/25 10:14:46;;;;;;;11.82;4.60;;;;;;;32.67;44.72;100600.19;5078242;28;20473;-85
2022/08/25 10:17:23;;;;;;;13.30;5.00;;;;;;;32.70;46.05;100587.06;5077410;28;20024;-85
2022/08/25 10:19:54;;;;;;;13.52;4.43;;;;;;;32.84;45.80;100584.97;5077410;28;20039;-85
2022/08/25 10:22:31;;;;;;;14.70;4.60;;;;;;;32.76;44.76;100589.63;5061358;28;20025;-84
2022/08/25 10:24:57;;;;;;;12.48;5.47;;;;;;;32.51;44.60;100578.41;5079000;28;20013;-84
2022/08/25 10:27:32;;;;;;;27.95;6.22;;;;;;;32.04;45.70;100593.16;5078009;28;20021;-83
2022/08/25 10:30:12;;;;;;;11.07;4.68;;;;;;;31.42;47.43;100583.78;5078830;28;20461;-83
2022/08/25 10:32:58;;;;;;;10.82;5.25;;;;;;;31.29;49.35;100576.28;5079285;28;20036;-84
2022/08/25 10:35:42;;;;;;;16.33;4.90;;;;;;;31.21;49.10;100587.53;5078928;28;20441;-85
2022/08/25 10:38:28;;;;;;;17.30;5.18;;;;;;;31.06;49.01;100587.94;5060296;28;20016;-84
2022/08/25 10:41:00;;;;;;;15.18;4.35;;;;;;;30.91;50.29;100577.31;5076953;28;20095;-84
2022/08/25 10:43:31;;;;;;;19.83;5.28;;;;;;;30.77;50.91;100573.38;5078211;28;20024;-84
2022/08/25 10:46:02;;;;;;;19.42;5.25;;;;;;;30.60;51.76;100563.97;5078351;28;20017;-85
2022/08/25 10:48:43;;;;;;;;;;;;;;;30.32;52.64;100566.44;5077781;28;20470;-85
2022/08/25 10:51:14;;;;;;;13.52;5.25;;;;;;;30.34;54.24;100559.91;5078381;28;19978;-83
2022/08/25 10:53:42;;;;;;;;;;;;;;;30.32;55.19;100554.63;5077134;28;20054;-85
2022/08/25 10:56:11;;;;;;;16.95;5.43;;;;;;;30.30;55.67;100544.88;5077128;28;19913;-84
2022/08/25 10:58:36;;;;;;;15.75;4.82;;;;;;;30.37;55.76;100550.56;5077483;28;20024;-84
2022/08/25 11:01:05;;;;;;;14.50;5.28;;;;;;;30.39;56.39;100541.13;5076472;28;20081;-85
2022/08/25 11:03:43;;;;;;;13.57;5.25;;;;;;;30.20;56.81;100538.25;5076291;28;20469;-81
2022/08/25 11:06:16;;;;;;;23.23;8.10;;;;;;;30.13;57.56;100531.13;5075669;28;20040;-84
2022/08/25 11:08:56;;;;;;;19.13;5.70;;;;;;;29.88;57.79;100531.50;5076166;28;20028;-85
2022/08/25 11:11:31;;;;;;;16.48;4.80;;;;;;;29.75;59.87;100519.47;5076386;28;20028;-84
2022/08/25 11:14:03;;;;;;;24.92;5.97;;;;;;;29.70;59.52;100515.44;5076852;28;20020;-84
2022/08/25 11:16:44;;;;;;;17.55;5.57;;;;;;;29.70;59.74;100498.53;5076714;28;20111;-85
2022/08/25 11:19:26;;;;;;;14.48;4.97;;;;;;;29.70;59.47;100497.78;5059513;28;20401;-84
2022/08/25 11:22:03;;;;;;;16.88;5.60;;;;;;;29.58;60.41;100502.75;5059537;28;20081;-84